65989 UUMU-UUMU
Flight info
| Callsign | 65989 |
|---|---|
| Flight time | 0h 12m |
| Altitude | 2000 |
| Route | K0700F280 BA A914 KA G128 INROD N82 INBAL T561 UBONA T323 OTPAD |
| Aircraft | T134/M-SDE3GHIJ2J3J5M1RVWXY/LB2D1 |
Departure
| Time | 2026-04-28 17:23 |
|---|---|
| Airport | Chkalovskiy Air Base (UUMU) |
Arrival
| Time | 2026-04-28 17:35 |
|---|---|
| Airport | Chkalovskiy Air Base (UUMU) |
| Time | Latitude | Longitude | Altitude | Speed | Heading |
|---|---|---|---|---|---|
| 2026-04-28 16:42 | 55.88277 | 38.03066 | 507 ft | 0 kts | 100° |
| 2026-04-28 17:12 | 55.88277 | 38.03068 | 507 ft | 1 kts | 100° |
| 2026-04-28 17:12 | 55.88277 | 38.03127 | 507 ft | 10 kts | 57° |
| 2026-04-28 17:13 | 55.88377 | 38.03177 | 507 ft | 16 kts | 9° |
| 2026-04-28 17:13 | 55.88475 | 38.03226 | 507 ft | 12 kts | 32° |
| 2026-04-28 17:13 | 55.88555 | 38.03306 | 507 ft | 15 kts | 17° |
| 2026-04-28 17:13 | 55.88651 | 38.03404 | 507 ft | 16 kts | 87° |
| 2026-04-28 17:14 | 55.88638 | 38.03547 | 507 ft | 11 kts | 100° |
| 2026-04-28 17:14 | 55.88640 | 38.03692 | 507 ft | 12 kts | 40° |
| 2026-04-28 17:14 | 55.88720 | 38.03737 | 507 ft | 10 kts | 10° |
| 2026-04-28 17:14 | 55.88798 | 38.03759 | 507 ft | 12 kts | 7° |
| 2026-04-28 17:15 | 55.88828 | 38.03877 | 507 ft | 14 kts | 114° |
| 2026-04-28 17:15 | 55.88750 | 38.04056 | 507 ft | 22 kts | 132° |
| 2026-04-28 17:15 | 55.88652 | 38.04258 | 507 ft | 21 kts | 130° |
| 2026-04-28 17:15 | 55.88553 | 38.04457 | 507 ft | 21 kts | 132° |
| 2026-04-28 17:16 | 55.88443 | 38.04657 | 507 ft | 23 kts | 137° |
| 2026-04-28 17:16 | 55.88346 | 38.04843 | 507 ft | 19 kts | 133° |
| 2026-04-28 17:16 | 55.88260 | 38.05011 | 507 ft | 19 kts | 129° |
| 2026-04-28 17:16 | 55.88153 | 38.05243 | 507 ft | 28 kts | 130° |
| 2026-04-28 17:17 | 55.88020 | 38.05524 | 507 ft | 30 kts | 130° |
| 2026-04-28 17:17 | 55.87879 | 38.05810 | 507 ft | 31 kts | 132° |
| 2026-04-28 17:17 | 55.87735 | 38.06110 | 507 ft | 32 kts | 129° |
| 2026-04-28 17:17 | 55.87586 | 38.06433 | 507 ft | 34 kts | 130° |
| 2026-04-28 17:18 | 55.87425 | 38.06765 | 507 ft | 35 kts | 130° |
| 2026-04-28 17:18 | 55.87268 | 38.07097 | 507 ft | 33 kts | 123° |
| 2026-04-28 17:18 | 55.87312 | 38.07346 | 507 ft | 26 kts | 7° |
| 2026-04-28 17:18 | 55.87497 | 38.07381 | 507 ft | 27 kts | 359° |
| 2026-04-28 17:19 | 55.87561 | 38.07294 | 507 ft | 0 kts | 313° |
| 2026-04-28 17:22 | 55.87564 | 38.07289 | 507 ft | 9 kts | 313° |
| 2026-04-28 17:23 | 55.88453 | 38.05442 | 513 ft | 171 kts | 310° |
| 2026-04-28 17:23 | 55.89271 | 38.03780 | 1105 ft | 191 kts | 312° |
| 2026-04-28 17:23 | 55.90214 | 38.01932 | 1842 ft | 215 kts | 311° |
| 2026-04-28 17:23 | 55.91263 | 37.99763 | 2209 ft | 246 kts | 311° |
| 2026-04-28 17:24 | 55.92572 | 37.97631 | 2564 ft | 267 kts | 329° |
| 2026-04-28 17:24 | 55.94324 | 37.96254 | 2703 ft | 289 kts | 347° |
| 2026-04-28 17:24 | 55.96343 | 37.96198 | 2838 ft | 283 kts | 15° |
| 2026-04-28 17:24 | 55.98027 | 37.97640 | 2715 ft | 272 kts | 33° |
| 2026-04-28 17:25 | 55.99551 | 37.99493 | 2720 ft | 257 kts | 41° |
| 2026-04-28 17:25 | 56.00941 | 38.04896 | 2544 ft | 245 kts | 88° |
| 2026-04-28 17:25 | 56.00730 | 38.07774 | 2615 ft | 218 kts | 116° |
| 2026-04-28 17:26 | 55.99893 | 38.09883 | 2474 ft | 206 kts | 130° |
| 2026-04-28 17:26 | 55.98987 | 38.11700 | 2463 ft | 189 kts | 133° |
| 2026-04-28 17:26 | 55.98030 | 38.13467 | 2439 ft | 215 kts | 134° |
| 2026-04-28 17:26 | 55.97037 | 38.15396 | 3067 ft | 226 kts | 132° |
| 2026-04-28 17:27 | 55.95968 | 38.17452 | 2722 ft | 225 kts | 133° |
| 2026-04-28 17:27 | 55.95003 | 38.19471 | 2750 ft | 206 kts | 128° |
| 2026-04-28 17:27 | 55.94141 | 38.21513 | 2625 ft | 205 kts | 126° |
| 2026-04-28 17:27 | 55.93327 | 38.23573 | 2624 ft | 199 kts | 127° |
| 2026-04-28 17:28 | 55.92469 | 38.25464 | 2733 ft | 192 kts | 133° |
| 2026-04-28 17:28 | 55.90321 | 38.28434 | 2808 ft | 212 kts | 159° |
| 2026-04-28 17:28 | 55.88962 | 38.29453 | 2780 ft | 211 kts | 145° |
| 2026-04-28 17:29 | 55.87867 | 38.31200 | 2571 ft | 213 kts | 133° |
| 2026-04-28 17:29 | 55.86821 | 38.33222 | 2303 ft | 231 kts | 131° |
| 2026-04-28 17:29 | 55.85724 | 38.35423 | 2308 ft | 242 kts | 131° |
| 2026-04-28 17:30 | 55.83581 | 38.39445 | 2690 ft | 212 kts | 143° |
| 2026-04-28 17:30 | 55.80845 | 38.39257 | 2635 ft | 219 kts | 211° |
| 2026-04-28 17:30 | 55.79586 | 38.37684 | 2640 ft | 225 kts | 216° |
| 2026-04-28 17:31 | 55.78351 | 38.36072 | 2881 ft | 217 kts | 220° |
| 2026-04-28 17:31 | 55.77147 | 38.31200 | 2967 ft | 235 kts | 267° |
| 2026-04-28 17:32 | 55.78327 | 38.25744 | 2714 ft | 250 kts | 316° |
| 2026-04-28 17:32 | 55.79628 | 38.23720 | 2678 ft | 243 kts | 317° |
| 2026-04-28 17:32 | 55.80774 | 38.21691 | 2540 ft | 227 kts | 311° |
| 2026-04-28 17:32 | 55.81788 | 38.19613 | 2308 ft | 217 kts | 310° |
| 2026-04-28 17:33 | 55.82730 | 38.17629 | 2012 ft | 203 kts | 310° |
| 2026-04-28 17:33 | 55.83593 | 38.15787 | 1647 ft | 190 kts | 309° |
| 2026-04-28 17:33 | 55.84402 | 38.14028 | 1428 ft | 176 kts | 309° |
| 2026-04-28 17:33 | 55.84903 | 38.12942 | 1306 ft | 167 kts | 309° |
| 2026-04-28 17:34 | 55.85913 | 38.10782 | 996 ft | 178 kts | 309° |
| 2026-04-28 17:34 | 55.86705 | 38.09094 | 672 ft | 172 kts | 310° |
| 2026-04-28 17:34 | 55.87453 | 38.07531 | 515 ft | 159 kts | 310° |
| 2026-04-28 17:34 | 55.88112 | 38.06156 | 507 ft | 127 kts | 310° |
| 2026-04-28 17:35 | 55.88588 | 38.05161 | 507 ft | 85 kts | 310° |
| 2026-04-28 17:35 | 55.88861 | 38.04577 | 507 ft | 43 kts | 307° |
| 2026-04-28 17:35 | 55.88990 | 38.04284 | 507 ft | 12 kts | 259° |
| 2026-04-28 17:35 | 55.88913 | 38.04242 | 507 ft | 3 kts | 182° |
| 2026-04-28 17:36 | 55.88867 | 38.04235 | 507 ft | 12 kts | 189° |
| 2026-04-28 17:36 | 55.88726 | 38.04186 | 507 ft | 24 kts | 185° |
| 2026-04-28 17:36 | 55.88572 | 38.04372 | 507 ft | 36 kts | 131° |
| 2026-04-28 17:36 | 55.88402 | 38.04722 | 507 ft | 37 kts | 130° |
| 2026-04-28 17:37 | 55.88273 | 38.04988 | 507 ft | 2 kts | 130° |
| 2026-04-28 17:37 | 55.88272 | 38.04988 | 507 ft | 0 kts | 130° |
| 2026-04-28 17:42 | 55.88269 | 38.04995 | 507 ft | 5 kts | 130° |
| 2026-04-28 17:42 | 55.88235 | 38.05065 | 507 ft | 17 kts | 130° |
| 2026-04-28 17:42 | 55.88055 | 38.05439 | 507 ft | 38 kts | 128° |
| 2026-04-28 17:42 | 55.87886 | 38.05807 | 507 ft | 39 kts | 130° |
| 2026-04-28 17:43 | 55.87698 | 38.06191 | 507 ft | 42 kts | 133° |
| 2026-04-28 17:43 | 55.87512 | 38.06578 | 507 ft | 28 kts | 129° |
| 2026-04-28 17:43 | 55.87416 | 38.06794 | 507 ft | 20 kts | 130° |
| 2026-04-28 17:43 | 55.87325 | 38.06996 | 507 ft | 21 kts | 127° |
| 2026-04-28 17:44 | 55.87248 | 38.07166 | 507 ft | 17 kts | 118° |
| 2026-04-28 17:44 | 55.87278 | 38.07333 | 507 ft | 16 kts | 19° |
| 2026-04-28 17:44 | 55.87408 | 38.07363 | 507 ft | 21 kts | 5° |
| 2026-04-28 17:44 | 55.87556 | 38.07304 | 507 ft | 9 kts | 313° |
| 2026-04-28 17:45 | 55.87563 | 38.07291 | 507 ft | 0 kts | 312° |
| 2026-04-28 17:45 | 55.87565 | 38.07287 | 507 ft | 1 kts | 312° |
| 2026-04-28 17:45 | 55.87759 | 38.06884 | 507 ft | 89 kts | 311° |
| 2026-04-28 17:45 | 55.88338 | 38.05681 | 511 ft | 164 kts | 311° |
| 2026-04-28 17:46 | 55.89185 | 38.03984 | 837 ft | 207 kts | 312° |
| 2026-04-28 17:46 | 55.90280 | 38.01883 | 1272 ft | 244 kts | 313° |
| 2026-04-28 17:46 | 55.91433 | 37.99738 | 1822 ft | 240 kts | 313° |
| 2026-04-28 17:46 | 55.92549 | 37.97598 | 2476 ft | 231 kts | 312° |
| 2026-04-28 17:47 | 55.93641 | 37.95438 | 2349 ft | 240 kts | 312° |
| 2026-04-28 17:47 | 55.94709 | 37.93301 | 2206 ft | 222 kts | 313° |
| 2026-04-28 17:47 | 55.95906 | 37.91829 | 2214 ft | 201 kts | 343° |
| 2026-04-28 17:47 | 55.96822 | 37.91654 | 2047 ft | 197 kts | 8° |
| 2026-04-28 17:48 | 55.98402 | 37.93034 | 1943 ft | 204 kts | 39° |
| 2026-04-28 17:48 | 55.99556 | 37.94757 | 2136 ft | 222 kts | 40° |
| 2026-04-28 17:48 | 56.00742 | 37.96556 | 2408 ft | 223 kts | 42° |
| 2026-04-28 17:48 | 56.01566 | 37.98898 | 2369 ft | 237 kts | 78° |
| 2026-04-28 17:49 | 56.01495 | 38.01795 | 2768 ft | 228 kts | 109° |
| 2026-04-28 17:49 | 56.00786 | 38.04171 | 2940 ft | 222 kts | 131° |
| 2026-04-28 17:49 | 55.99748 | 38.06168 | 2780 ft | 209 kts | 133° |
| 2026-04-28 17:49 | 55.98759 | 38.07995 | 2627 ft | 199 kts | 133° |
| 2026-04-28 17:50 | 55.97804 | 38.09717 | 2537 ft | 201 kts | 137° |
| 2026-04-28 17:50 | 55.96711 | 38.11579 | 2650 ft | 226 kts | 134° |
| 2026-04-28 17:50 | 55.95658 | 38.13652 | 2885 ft | 226 kts | 127° |
| 2026-04-28 17:50 | 55.94631 | 38.15818 | 2874 ft | 236 kts | 136° |
| 2026-04-28 17:51 | 55.93496 | 38.17764 | 3121 ft | 210 kts | 133° |
| 2026-04-28 17:51 | 55.92548 | 38.19622 | 2968 ft | 201 kts | 130° |
| 2026-04-28 17:51 | 55.91649 | 38.21487 | 2779 ft | 193 kts | 131° |
| 2026-04-28 17:51 | 55.90913 | 38.22884 | 2757 ft | 203 kts | 133° |
| 2026-04-28 17:52 | 55.89030 | 38.27363 | 2686 ft | 266 kts | 123° |
| 2026-04-28 17:53 | 55.87850 | 38.29913 | 2806 ft | 278 kts | 132° |
| 2026-04-28 17:53 | 55.87477 | 38.30638 | 2944 ft | 275 kts | 131° |
| 2026-04-28 17:53 | 55.86232 | 38.33133 | 2812 ft | 258 kts | 131° |
| 2026-04-28 17:54 | 55.85096 | 38.35503 | 2552 ft | 243 kts | 129° |
| 2026-04-28 17:54 | 55.84083 | 38.37764 | 2398 ft | 227 kts | 128° |
| 2026-04-28 17:54 | 55.83144 | 38.39909 | 2266 ft | 212 kts | 133° |
| 2026-04-28 17:54 | 55.81984 | 38.41315 | 2096 ft | 205 kts | 162° |
| 2026-04-28 17:55 | 55.80624 | 38.41405 | 2102 ft | 193 kts | 197° |
| 2026-04-28 17:55 | 55.79465 | 38.40258 | 1949 ft | 191 kts | 219° |
| 2026-04-28 17:55 | 55.78470 | 38.38665 | 1786 ft | 191 kts | 222° |
| 2026-04-28 17:55 | 55.77493 | 38.37030 | 1598 ft | 192 kts | 223° |
| 2026-04-28 17:56 | 55.76530 | 38.35483 | 2003 ft | 201 kts | 220° |
| 2026-04-28 17:56 | 55.75573 | 38.33336 | 2276 ft | 240 kts | 246° |
| 2026-04-28 17:56 | 55.75382 | 38.30537 | 2608 ft | 223 kts | 285° |
| 2026-04-28 17:56 | 55.76247 | 38.28422 | 2384 ft | 226 kts | 326° |
| 2026-04-28 17:57 | 55.77684 | 38.26939 | 2508 ft | 249 kts | 328° |
| 2026-04-28 17:57 | 55.79055 | 38.25170 | 2659 ft | 237 kts | 316° |
| 2026-04-28 17:57 | 55.80152 | 38.23100 | 2554 ft | 220 kts | 311° |
| 2026-04-28 17:57 | 55.81108 | 38.21081 | 2278 ft | 214 kts | 309° |
| 2026-04-28 17:58 | 55.82006 | 38.19131 | 1976 ft | 195 kts | 309° |
| 2026-04-28 17:58 | 55.82827 | 38.17353 | 1833 ft | 175 kts | 309° |
| 2026-04-28 17:58 | 55.83562 | 38.15725 | 1729 ft | 165 kts | 308° |
| 2026-04-28 17:58 | 55.84283 | 38.14152 | 1432 ft | 168 kts | 310° |
| 2026-04-28 17:59 | 55.85041 | 38.12600 | 1140 ft | 162 kts | 311° |
| 2026-04-28 17:59 | 55.85772 | 38.11078 | 926 ft | 162 kts | 310° |
| 2026-04-28 17:59 | 55.86523 | 38.09506 | 766 ft | 176 kts | 310° |
| 2026-04-28 17:59 | 55.87275 | 38.07887 | 538 ft | 161 kts | 310° |
| 2026-04-28 18:00 | 55.87951 | 38.06489 | 507 ft | 134 kts | 310° |
| 2026-04-28 18:00 | 55.88435 | 38.05487 | 507 ft | 100 kts | 310° |
| 2026-04-28 18:00 | 55.88865 | 38.04580 | 507 ft | 74 kts | 311° |
| 2026-04-28 18:00 | 55.89038 | 38.04199 | 507 ft | 9 kts | 256° |
| 2026-04-28 18:01 | 55.88969 | 38.04211 | 507 ft | 13 kts | 176° |
| 2026-04-28 18:01 | 55.88867 | 38.04232 | 507 ft | 17 kts | 187° |
| 2026-04-28 18:01 | 55.88719 | 38.04181 | 507 ft | 20 kts | 183° |
| 2026-04-28 18:01 | 55.88622 | 38.04260 | 507 ft | 17 kts | 132° |
| 2026-04-28 18:02 | 55.88550 | 38.04401 | 507 ft | 16 kts | 131° |
| 2026-04-28 18:02 | 55.88526 | 38.04449 | 507 ft | 0 kts | 130° |
| 2026-04-28 18:05 | 55.88506 | 38.04499 | 507 ft | 8 kts | 122° |
| 2026-04-28 18:06 | 55.88427 | 38.04666 | 507 ft | 31 kts | 131° |
| 2026-04-28 18:06 | 55.88220 | 38.05107 | 507 ft | 64 kts | 129° |
| 2026-04-28 18:06 | 55.87929 | 38.05727 | 507 ft | 65 kts | 130° |
| 2026-04-28 18:06 | 55.87657 | 38.06298 | 507 ft | 56 kts | 130° |
| 2026-04-28 18:07 | 55.87405 | 38.06829 | 507 ft | 56 kts | 129° |
| 2026-04-28 18:07 | 55.87240 | 38.07191 | 507 ft | 33 kts | 107° |
| 2026-04-28 18:07 | 55.87392 | 38.07364 | 507 ft | 31 kts | 4° |
| 2026-04-28 18:07 | 55.87561 | 38.07298 | 507 ft | 12 kts | 305° |
| 2026-04-28 18:08 | 55.87569 | 38.07281 | 507 ft | 1 kts | 308° |
| 2026-04-28 18:08 | 55.87573 | 38.07270 | 507 ft | 2 kts | 308° |
| 2026-04-28 18:08 | 55.87592 | 38.07227 | 507 ft | 0 kts | 310° |
| 2026-04-28 18:09 | 55.87595 | 38.07223 | 507 ft | 0 kts | 310° |
| 2026-04-28 18:09 | 55.87597 | 38.07218 | 507 ft | 0 kts | 310° |
| 2026-04-28 18:10 | 55.87686 | 38.07035 | 507 ft | 62 kts | 310° |
| 2026-04-28 18:11 | 55.88170 | 38.06030 | 507 ft | 148 kts | 310° |
| 2026-04-28 18:11 | 55.88942 | 38.04403 | 900 ft | 190 kts | 309° |
| 2026-04-28 18:11 | 55.89926 | 38.02318 | 1092 ft | 248 kts | 310° |
| 2026-04-28 18:11 | 55.91100 | 37.99826 | 1443 ft | 252 kts | 309° |
| 2026-04-28 18:12 | 55.92102 | 37.97652 | 1840 ft | 209 kts | 309° |
| 2026-04-28 18:12 | 55.92974 | 37.95807 | 2098 ft | 189 kts | 310° |
| 2026-04-28 18:12 | 55.93943 | 37.94062 | 2312 ft | 217 kts | 327° |
| 2026-04-28 18:12 | 55.95291 | 37.93087 | 2763 ft | 206 kts | 351° |
| 2026-04-28 18:13 | 55.96755 | 37.93305 | 2651 ft | 221 kts | 18° |
| 2026-04-28 18:13 | 55.98150 | 37.94670 | 2575 ft | 241 kts | 36° |
| 2026-04-28 18:13 | 55.99523 | 37.96369 | 2616 ft | 229 kts | 33° |
| 2026-04-28 18:13 | 56.00787 | 37.97863 | 2694 ft | 209 kts | 34° |
| 2026-04-28 18:14 | 56.01929 | 37.99279 | 2689 ft | 196 kts | 38° |
| 2026-04-28 18:14 | 56.02709 | 38.01283 | 2577 ft | 205 kts | 76° |
| 2026-04-28 18:14 | 56.02655 | 38.03830 | 2716 ft | 213 kts | 111° |
| 2026-04-28 18:14 | 56.01901 | 38.06171 | 2685 ft | 222 kts | 131° |
| 2026-04-28 18:15 | 56.00864 | 38.08204 | 2691 ft | 216 kts | 133° |
| 2026-04-28 18:15 | 55.99849 | 38.10158 | 2668 ft | 216 kts | 131° |
| 2026-04-28 18:15 | 55.98853 | 38.12245 | 2889 ft | 224 kts | 129° |
| 2026-04-28 18:15 | 55.97911 | 38.14437 | 3072 ft | 232 kts | 127° |
| 2026-04-28 18:16 | 55.96913 | 38.16728 | 2818 ft | 228 kts | 128° |
| 2026-04-28 18:16 | 55.95980 | 38.18833 | 2926 ft | 202 kts | 127° |
| 2026-04-28 18:16 | 55.95171 | 38.20712 | 2943 ft | 184 kts | 127° |
| 2026-04-28 18:16 | 55.94374 | 38.22572 | 2821 ft | 195 kts | 128° |
| 2026-04-28 18:17 | 55.93543 | 38.24441 | 3332 ft | 186 kts | 128° |
| 2026-04-28 18:17 | 55.92717 | 38.26316 | 3477 ft | 215 kts | 127° |
| 2026-04-28 18:17 | 55.91822 | 38.28450 | 3218 ft | 212 kts | 126° |
| 2026-04-28 18:17 | 55.90953 | 38.30535 | 2958 ft | 207 kts | 126° |
| 2026-04-28 18:18 | 55.90124 | 38.32518 | 2764 ft | 200 kts | 127° |
| 2026-04-28 18:18 | 55.89271 | 38.34487 | 2577 ft | 190 kts | 127° |
| 2026-04-28 18:18 | 55.88518 | 38.36223 | 2546 ft | 179 kts | 128° |
| 2026-04-28 18:18 | 55.87994 | 38.37387 | 2405 ft | 179 kts | 129° |
| 2026-04-28 18:19 | 55.86948 | 38.39656 | 2391 ft | 183 kts | 134° |
| 2026-04-28 18:19 | 55.85749 | 38.40980 | 2414 ft | 220 kts | 166° |
| 2026-04-28 18:19 | 55.84266 | 38.40785 | 2533 ft | 213 kts | 200° |
| 2026-04-28 18:19 | 55.82960 | 38.39632 | 2522 ft | 209 kts | 212° |
| 2026-04-28 18:20 | 55.81719 | 38.38041 | 2531 ft | 231 kts | 217° |
| 2026-04-28 18:20 | 55.80412 | 38.36224 | 2672 ft | 250 kts | 219° |
| 2026-04-28 18:20 | 55.79330 | 38.33774 | 2842 ft | 248 kts | 245° |
| 2026-04-28 18:20 | 55.78918 | 38.31007 | 2782 ft | 227 kts | 266° |
| 2026-04-28 18:21 | 55.79063 | 38.28283 | 2605 ft | 214 kts | 285° |
| 2026-04-28 18:21 | 55.79577 | 38.25838 | 2509 ft | 216 kts | 295° |
| 2026-04-28 18:21 | 55.80303 | 38.23442 | 2525 ft | 219 kts | 301° |
| 2026-04-28 18:21 | 55.81110 | 38.21263 | 2407 ft | 207 kts | 305° |
| 2026-04-28 18:22 | 55.81953 | 38.19312 | 2220 ft | 189 kts | 310° |
| 2026-04-28 18:22 | 55.82750 | 38.17582 | 1983 ft | 172 kts | 308° |
| 2026-04-28 18:22 | 55.83473 | 38.15982 | 1609 ft | 165 kts | 310° |
| 2026-04-28 18:22 | 55.84203 | 38.14421 | 1307 ft | 171 kts | 310° |
| 2026-04-28 18:23 | 55.84988 | 38.12761 | 1152 ft | 176 kts | 310° |
| 2026-04-28 18:23 | 55.85750 | 38.11144 | 927 ft | 165 kts | 309° |
| 2026-04-28 18:23 | 55.86467 | 38.09613 | 708 ft | 164 kts | 310° |
| 2026-04-28 18:23 | 55.87251 | 38.07948 | 555 ft | 170 kts | 310° |
| 2026-04-28 18:24 | 55.87942 | 38.06502 | 507 ft | 143 kts | 310° |
| 2026-04-28 18:24 | 55.88300 | 38.05758 | 507 ft | 91 kts | 309° |
| 2026-04-28 18:24 | 55.88787 | 38.04749 | 507 ft | 55 kts | 307° |
| 2026-04-28 18:24 | 55.88941 | 38.04422 | 507 ft | 31 kts | 309° |
| 2026-04-28 18:25 | 55.88930 | 38.04252 | 507 ft | 5 kts | 188° |
| 2026-04-28 18:25 | 55.88887 | 38.04241 | 507 ft | 8 kts | 188° |
| 2026-04-28 18:25 | 55.88809 | 38.04220 | 507 ft | 14 kts | 191° |
| 2026-04-28 18:26 | 55.88838 | 38.03882 | 507 ft | 17 kts | 305° |
| 2026-04-28 18:26 | 55.88763 | 38.03757 | 507 ft | 24 kts | 194° |
| 2026-04-28 18:26 | 55.88631 | 38.03638 | 507 ft | 20 kts | 276° |
| 2026-04-28 18:26 | 55.88637 | 38.03368 | 507 ft | 24 kts | 225° |
| 2026-04-28 18:27 | 55.88454 | 38.03209 | 507 ft | 28 kts | 197° |
| 2026-04-28 18:27 | 55.88271 | 38.03144 | 507 ft | 20 kts | 190° |
| 2026-04-28 18:27 | 55.88253 | 38.03138 | 507 ft | 0 kts | 191° |